Airfield :
LOGIN :

Register | Disclaimer

   EN    FR    IT 

 










Legend :    VFR   Marginal VFR   IFR   Intensive IFR   Very Intensive IFR
Visi :
Ceiling :
>= 8 km
>= 3000ft
5 to 8 km
1000 to 3000 ft
1500m to 5 km
500 to 1000 ft
800 to 1500m
200 to 500 ft
< 800m
< 200 ft
Symbols :   Thunderstorms  Fog  Heavy snow  Heavy precipitations  Wind > 20 kt
SIGMETs :     Misc.  Thunderstorms  Icing  Turbulence  Mountain Waves  Volcanic Ashes






- Airport Elevation : 272 ft
- IATA code : MXN


LFRU - Morlaix-Ploujean

CURRENT METAR :
  • 261030Z AUTO 14003KT 110V170 7000 NSC 05/02 Q1035

EXPIRED METARs :
  • 261000Z AUTO VRB01KT 4800 BR NSC 04/02 Q1035
  • 260930Z AUTO 00000KT 4400 BR NSC 02/00 Q1035
  • 260900Z AUTO 14003KT 120V180 4600 BR NSC 01/01 Q1035
  • 260830Z AUTO VRB02KT 1800 BR NSC M01/M01 Q1035
  • 260800Z AUTO 00000KT 2600 BR NSC M00/M00 Q1035

TAF N/A



MET'MAP, your aeronautical weather chart ! - Copyright ORBIFLY December 2007 - Disclaimer

ORBIFLY MET'MAP TEAM :

Programming & Development : Alexandra Zaïnal
Original concept : Baudouin d'Aumeries
Technical & hardware support : Manuel Goepfert
Assistance : Marc-Olivier Méhu

Contact : metmap@orbifly.com




SOURCES & CREDITS :

   NOAA